createdAt,value
2019-01-15T00:00:05.047Z,0.90
2019-01-15T00:01:05.161Z,0.90
2019-01-15T00:02:05.303Z,0.90
2019-01-15T00:03:05.446Z,0.90
2019-01-15T00:04:08.113Z,0.90
2019-01-15T00:05:05.043Z,1.00
2019-01-15T00:06:07.713Z,0.90
2019-01-15T00:07:07.232Z,1.00
2019-01-15T00:08:05.273Z,0.90
2019-01-15T00:09:05.371Z,1.00
2019-01-15T00:10:05.567Z,1.00
2019-01-15T00:11:04.733Z,1.00
2019-01-15T00:12:07.875Z,1.00
2019-01-15T00:13:07.646Z,1.00
2019-01-15T00:14:05.762Z,1.00
2019-01-15T00:15:07.434Z,1.00
2019-01-15T00:16:07.827Z,1.00
2019-01-15T00:17:04.956Z,0.90
2019-01-15T00:18:12.793Z,1.00
2019-01-15T00:19:09.926Z,1.00
2019-01-15T00:20:07.458Z,1.00
2019-01-15T00:21:07.915Z,1.00
2019-01-15T00:22:04.949Z,1.00
2019-01-15T00:23:07.642Z,1.00
2019-01-15T00:24:08.090Z,1.00
2019-01-15T00:25:07.578Z,1.00
2019-01-15T00:26:05.652Z,1.00
2019-01-15T00:27:04.795Z,1.00
2019-01-15T00:28:04.945Z,1.00
2019-01-15T00:29:05.028Z,1.00
2019-01-15T00:30:05.716Z,1.00
2019-01-15T00:31:09.954Z,1.00
2019-01-15T00:32:07.376Z,1.00
2019-01-15T00:33:05.388Z,1.00
2019-01-15T00:34:05.616Z,1.00
2019-01-15T00:35:07.443Z,1.00
2019-01-15T00:36:05.411Z,1.00
2019-01-15T00:37:05.543Z,1.00
2019-01-15T00:38:05.777Z,1.00
2019-01-15T00:39:07.448Z,1.00
2019-01-15T00:40:07.983Z,1.00
2019-01-15T00:41:04.999Z,1.00
2019-01-15T00:42:05.476Z,1.00
2019-01-15T00:43:05.762Z,1.00
2019-01-15T00:44:04.854Z,1.00
2019-01-15T00:45:07.411Z,1.00
2019-01-15T00:46:05.319Z,1.00
2019-01-15T00:47:08.027Z,1.00
2019-01-15T00:48:04.974Z,1.10
2019-01-15T00:49:05.085Z,1.00
2019-01-15T00:50:05.208Z,1.10
2019-01-15T00:51:05.315Z,1.10
2019-01-15T00:52:05.365Z,1.10
2019-01-15T00:53:05.375Z,1.00
2019-01-15T00:54:07.923Z,1.10
2019-01-15T00:55:07.306Z,1.10
2019-01-15T00:56:07.843Z,1.10
2019-01-15T00:57:07.369Z,1.10
2019-01-15T00:58:07.854Z,1.10
2019-01-15T00:59:04.859Z,1.10
2019-01-15T01:00:04.934Z,1.10
2019-01-15T01:01:07.459Z,1.10
2019-01-15T01:02:05.386Z,1.10
2019-01-15T01:03:05.518Z,1.10
2019-01-15T01:04:05.585Z,1.10
2019-01-15T01:05:08.315Z,1.10
2019-01-15T01:06:05.304Z,1.10
2019-01-15T01:07:05.375Z,1.20
2019-01-15T01:08:05.475Z,1.10
2019-01-15T01:09:05.503Z,1.10
2019-01-15T01:10:08.202Z,1.10
2019-01-15T01:11:05.203Z,1.10
2019-01-15T01:12:07.726Z,1.10
2019-01-15T01:13:08.189Z,1.10
2019-01-15T01:14:05.111Z,1.10
2019-01-15T01:15:05.139Z,1.10
2019-01-15T01:16:05.299Z,1.10
2019-01-15T01:17:05.445Z,1.10
2019-01-15T01:18:05.506Z,1.10
2019-01-15T01:19:05.516Z,1.10
2019-01-15T01:20:05.545Z,1.10
2019-01-15T01:21:10.696Z,1.10
2019-01-15T01:22:08.151Z,1.10
2019-01-15T01:23:05.040Z,1.10
2019-01-15T01:24:10.235Z,1.10
2019-01-15T01:25:05.197Z,1.10
2019-01-15T01:26:05.380Z,1.10
2019-01-15T01:27:08.069Z,1.10
2019-01-15T01:28:05.132Z,1.10
2019-01-15T01:29:05.302Z,1.10
2019-01-15T01:30:07.815Z,1.10
2019-01-15T01:31:04.741Z,1.10
2019-01-15T01:32:07.626Z,1.10
2019-01-15T01:33:08.209Z,1.10
2019-01-15T01:34:05.147Z,1.10
2019-01-15T01:35:05.158Z,1.10
2019-01-15T01:36:05.184Z,1.10
2019-01-15T01:37:08.013Z,1.10
2019-01-15T01:38:05.047Z,1.10
2019-01-15T01:39:05.121Z,1.10
2019-01-15T01:40:05.222Z,1.10
2019-01-15T01:41:05.244Z,1.10
2019-01-15T01:42:05.332Z,1.10
2019-01-15T01:43:05.378Z,1.10
2019-01-15T01:44:05.435Z,1.10
2019-01-15T01:45:05.477Z,1.20
2019-01-15T01:46:05.540Z,1.10
2019-01-15T01:47:05.044Z,1.10
2019-01-15T01:48:07.569Z,1.10
2019-01-15T01:49:05.439Z,1.20
2019-01-15T01:50:08.175Z,1.20
2019-01-15T01:51:05.118Z,1.20
2019-01-15T01:52:05.215Z,1.10
2019-01-15T01:53:07.851Z,1.20
2019-01-15T01:54:07.469Z,1.20
2019-01-15T01:55:05.419Z,1.20
2019-01-15T01:56:05.538Z,1.20
2019-01-15T01:57:08.169Z,1.20
2019-01-15T01:58:05.104Z,1.20
2019-01-15T01:59:05.186Z,1.20
2019-01-15T02:00:05.368Z,1.20
2019-01-15T02:01:08.015Z,1.20
2019-01-15T02:02:05.017Z,1.20
2019-01-15T02:03:07.618Z,1.20
2019-01-15T02:04:05.574Z,1.20
2019-01-15T02:05:05.683Z,1.20
2019-01-15T02:06:04.817Z,1.20
2019-01-15T02:07:04.871Z,1.20
2019-01-15T02:08:07.506Z,1.20
2019-01-15T02:09:08.179Z,1.30
2019-01-15T02:10:05.092Z,1.20
2019-01-15T02:11:07.611Z,1.30
2019-01-15T02:12:08.098Z,1.30
2019-01-15T02:13:04.981Z,1.30
2019-01-15T02:14:07.574Z,1.30
2019-01-15T02:15:05.689Z,1.30
2019-01-15T02:16:04.860Z,1.30
2019-01-15T02:17:05.096Z,1.30
2019-01-15T02:18:07.824Z,1.30
2019-01-15T02:19:07.482Z,1.30
2019-01-15T02:20:05.422Z,1.30
2019-01-15T02:21:05.463Z,1.30
2019-01-15T02:22:05.559Z,1.30
2019-01-15T02:23:08.200Z,1.20
2019-01-15T02:24:05.070Z,1.30
2019-01-15T02:25:05.274Z,1.20
2019-01-15T02:26:05.413Z,1.30
2019-01-15T02:27:05.620Z,1.30
2019-01-15T02:28:07.369Z,1.30
2019-01-15T02:29:05.313Z,1.30
2019-01-15T02:30:05.164Z,1.30
2019-01-15T02:31:05.345Z,1.30
2019-01-15T02:32:05.562Z,1.30
2019-01-15T02:33:08.192Z,1.30
2019-01-15T02:34:05.122Z,1.30
2019-01-15T02:35:05.160Z,1.30
2019-01-15T02:36:07.807Z,1.30
2019-01-15T02:37:04.755Z,1.30
2019-01-15T02:38:07.603Z,1.30
2019-01-15T02:39:05.704Z,1.30
2019-01-15T02:40:04.880Z,1.30
2019-01-15T02:41:04.955Z,1.30
2019-01-15T02:42:05.642Z,1.30
2019-01-15T02:43:04.766Z,1.30
2019-01-15T02:44:04.920Z,1.30
2019-01-15T02:45:05.082Z,1.30
2019-01-15T02:46:07.788Z,1.30
2019-01-15T02:47:07.338Z,1.30
2019-01-15T02:48:07.844Z,1.30
2019-01-15T02:49:04.721Z,1.30
2019-01-15T02:50:04.840Z,1.30
2019-01-15T02:51:05.009Z,1.30
2019-01-15T02:52:05.106Z,1.30
2019-01-15T02:53:05.173Z,1.40
2019-01-15T02:54:07.769Z,1.40
2019-01-15T02:55:04.692Z,1.30
2019-01-15T02:56:04.705Z,1.40
2019-01-15T02:57:07.274Z,1.40
2019-01-15T02:58:05.355Z,1.40
2019-01-15T02:59:08.042Z,1.40
2019-01-15T03:00:05.040Z,1.30
2019-01-15T03:01:07.663Z,1.40
2019-01-15T03:02:05.690Z,1.40
2019-01-15T03:03:04.755Z,1.40
2019-01-15T03:04:04.838Z,1.40
2019-01-15T03:05:07.470Z,1.40
2019-01-15T03:06:08.120Z,1.40
2019-01-15T03:07:05.141Z,1.40
2019-01-15T03:08:07.954Z,1.40
2019-01-15T03:09:04.864Z,1.30
2019-01-15T03:10:07.562Z,1.40
2019-01-15T03:11:05.605Z,1.40
2019-01-15T03:12:07.233Z,1.40
2019-01-15T03:13:05.250Z,1.40
2019-01-15T03:14:05.405Z,1.40
2019-01-15T03:15:05.531Z,1.40
2019-01-15T03:16:05.721Z,1.40
2019-01-15T03:17:04.857Z,1.40
2019-01-15T03:18:05.082Z,1.40
2019-01-15T03:19:05.193Z,1.40
2019-01-15T03:20:07.765Z,1.40
2019-01-15T03:21:04.665Z,1.40
2019-01-15T03:22:07.437Z,1.40
2019-01-15T03:23:05.467Z,1.40
2019-01-15T03:24:05.513Z,1.40
2019-01-15T03:25:05.656Z,1.40
2019-01-15T03:26:04.791Z,1.40
2019-01-15T03:27:04.876Z,1.40
2019-01-15T03:28:04.958Z,1.40
2019-01-15T03:29:05.021Z,1.40
2019-01-15T03:30:10.633Z,1.40
2019-01-15T03:31:05.610Z,1.40
2019-01-15T03:32:04.907Z,1.40
2019-01-15T03:33:05.453Z,1.40
2019-01-15T03:34:08.140Z,1.40
2019-01-15T03:35:07.582Z,1.40
2019-01-15T03:36:05.666Z,1.40
2019-01-15T03:37:04.750Z,1.40
2019-01-15T03:38:09.889Z,1.40
2019-01-15T03:39:04.790Z,1.40
2019-01-15T03:40:07.530Z,1.40
2019-01-15T03:41:05.546Z,1.40
2019-01-15T03:42:05.579Z,1.40
2019-01-15T03:43:08.310Z,1.40
2019-01-15T03:44:07.909Z,1.40
2019-01-15T03:45:05.240Z,1.40
2019-01-15T03:46:05.391Z,1.40
2019-01-15T03:47:05.507Z,1.40
2019-01-15T03:48:05.646Z,1.40
2019-01-15T03:49:04.909Z,1.40
2019-01-15T03:50:05.064Z,1.40
2019-01-15T03:51:05.256Z,1.40
2019-01-15T03:52:05.310Z,1.40
2019-01-15T03:53:07.994Z,1.40
2019-01-15T03:54:07.688Z,1.40
2019-01-15T03:55:07.465Z,1.40
2019-01-15T03:56:05.499Z,1.40
2019-01-15T03:57:05.557Z,1.40
2019-01-15T03:58:05.682Z,1.40
2019-01-15T03:59:04.739Z,1.40
2019-01-15T04:00:04.903Z,1.40
2019-01-15T04:01:05.083Z,1.40
2019-01-15T04:02:04.714Z,1.40
2019-01-15T04:03:04.721Z,1.40
2019-01-15T04:04:07.583Z,1.40
2019-01-15T04:05:05.619Z,1.40
2019-01-15T04:06:04.725Z,1.40
2019-01-15T04:07:09.868Z,1.40
2019-01-15T04:08:07.311Z,1.40
2019-01-15T04:09:05.367Z,1.40
2019-01-15T04:10:08.177Z,1.40
2019-01-15T04:11:05.377Z,1.40
2019-01-15T04:12:05.494Z,1.40
2019-01-15T04:13:11.139Z,1.40
2019-01-15T04:14:05.618Z,1.40
2019-01-15T04:15:04.832Z,1.40
2019-01-15T04:16:07.528Z,1.40
2019-01-15T04:17:05.645Z,1.40
2019-01-15T04:18:04.861Z,1.40
2019-01-15T04:19:05.057Z,1.40
2019-01-15T04:20:07.635Z,1.40
2019-01-15T04:21:05.626Z,1.40
2019-01-15T04:22:04.735Z,1.40
2019-01-15T04:23:04.816Z,1.40
2019-01-15T04:24:04.981Z,1.40
2019-01-15T04:25:07.600Z,1.40
2019-01-15T04:26:07.994Z,1.40
2019-01-15T04:27:04.892Z,1.30
2019-01-15T04:28:04.883Z,1.30
2019-01-15T04:29:10.013Z,1.40
2019-01-15T04:30:05.366Z,1.40
2019-01-15T04:31:08.012Z,1.40
2019-01-15T04:32:04.899Z,1.40
2019-01-15T04:33:04.926Z,1.30
2019-01-15T04:34:05.032Z,1.40
2019-01-15T04:35:05.076Z,1.40
2019-01-15T04:36:05.310Z,1.40
2019-01-15T04:37:10.544Z,1.30
2019-01-15T04:38:05.446Z,1.40
2019-01-15T04:39:05.708Z,1.40
2019-01-15T04:40:04.855Z,1.40
2019-01-15T04:41:07.510Z,1.40
2019-01-15T04:42:05.545Z,1.40
2019-01-15T04:43:05.615Z,1.40
2019-01-15T04:44:04.706Z,1.40
2019-01-15T04:45:04.719Z,1.30
2019-01-15T04:46:07.366Z,1.40
2019-01-15T04:47:05.447Z,1.30
2019-01-15T04:48:08.122Z,1.40
2019-01-15T04:49:05.126Z,1.40
2019-01-15T04:50:05.249Z,1.40
2019-01-15T04:51:05.324Z,1.30
2019-01-15T04:52:05.465Z,1.30
2019-01-15T04:53:05.549Z,1.30
2019-01-15T04:54:05.647Z,1.40
2019-01-15T04:55:04.806Z,1.30
2019-01-15T04:56:04.884Z,1.40
2019-01-15T04:57:05.118Z,1.40
2019-01-15T04:58:07.730Z,1.30
2019-01-15T04:59:04.654Z,1.40
2019-01-15T05:00:04.961Z,1.40
2019-01-15T05:01:07.768Z,1.40
2019-01-15T05:02:04.887Z,1.30
2019-01-15T05:03:05.144Z,1.30
2019-01-15T05:04:07.789Z,1.30
2019-01-15T05:05:04.698Z,1.30
2019-01-15T05:06:04.895Z,1.30
2019-01-15T05:07:05.020Z,1.40
2019-01-15T05:08:07.693Z,1.30
2019-01-15T05:09:05.719Z,1.30
2019-01-15T05:10:07.383Z,1.30
2019-01-15T05:11:10.368Z,1.30
2019-01-15T05:12:05.399Z,1.40
2019-01-15T05:13:05.645Z,1.40
2019-01-15T05:14:04.762Z,1.30
2019-01-15T05:15:04.808Z,1.40
2019-01-15T05:16:04.908Z,1.40
2019-01-15T05:17:05.061Z,1.40
2019-01-15T05:18:05.178Z,1.40
2019-01-15T05:19:05.225Z,1.40
2019-01-15T05:20:05.287Z,1.40
2019-01-15T05:21:05.397Z,1.40
2019-01-15T05:22:05.507Z,1.30
2019-01-15T05:23:05.616Z,1.40
2019-01-15T05:24:07.264Z,1.30
2019-01-15T05:25:08.150Z,1.40
2019-01-15T05:26:05.730Z,1.40
2019-01-15T05:27:07.433Z,1.40
2019-01-15T05:28:05.435Z,1.30
2019-01-15T05:29:05.505Z,1.40
2019-01-15T05:30:05.119Z,1.40
2019-01-15T05:31:05.151Z,1.40
2019-01-15T05:32:07.831Z,1.40
2019-01-15T05:33:07.341Z,1.40
2019-01-15T05:34:05.357Z,1.40
2019-01-15T05:35:05.499Z,1.40
2019-01-15T05:36:05.615Z,1.40
2019-01-15T05:37:04.725Z,1.40
2019-01-15T05:38:04.922Z,1.40
2019-01-15T05:39:07.680Z,1.40
2019-01-15T05:40:04.691Z,1.40
2019-01-15T05:41:07.238Z,1.40
2019-01-15T05:42:05.266Z,1.40
2019-01-15T05:43:05.426Z,1.40
2019-01-15T05:44:05.518Z,1.40
2019-01-15T05:45:05.584Z,1.40
2019-01-15T05:46:07.333Z,1.40
2019-01-15T05:47:05.411Z,1.40
2019-01-15T05:48:05.510Z,1.40
2019-01-15T05:49:05.647Z,1.40
2019-01-15T05:50:07.218Z,1.40
2019-01-15T05:51:05.136Z,1.40
2019-01-15T05:52:07.751Z,1.40
2019-01-15T05:53:04.795Z,1.40
2019-01-15T05:54:07.488Z,1.30
2019-01-15T05:55:05.592Z,1.40
2019-01-15T05:56:07.309Z,1.40
2019-01-15T05:57:05.440Z,1.30
2019-01-15T05:58:05.565Z,1.40
2019-01-15T05:59:13.247Z,1.40
2019-01-15T06:00:05.179Z,1.40
2019-01-15T06:01:05.158Z,1.40
2019-01-15T06:02:07.707Z,1.40
2019-01-15T06:03:08.146Z,1.40
2019-01-15T06:04:07.718Z,1.40
2019-01-15T06:05:04.696Z,1.40
2019-01-15T06:06:04.871Z,1.40
2019-01-15T06:07:05.012Z,1.40
2019-01-15T06:08:05.130Z,1.40
2019-01-15T06:09:05.152Z,1.40
2019-01-15T06:10:05.237Z,1.40
2019-01-15T06:11:05.230Z,1.40
2019-01-15T06:12:05.393Z,1.40
2019-01-15T06:13:05.443Z,1.40
2019-01-15T06:14:05.520Z,1.40
2019-01-15T06:15:05.503Z,1.40
2019-01-15T06:16:05.547Z,1.40
2019-01-15T06:17:05.640Z,1.40
2019-01-15T06:18:04.718Z,1.40
2019-01-15T06:19:07.282Z,1.40
2019-01-15T06:20:05.244Z,1.40
2019-01-15T06:21:08.021Z,1.40
2019-01-15T06:22:05.009Z,1.40
2019-01-15T06:23:07.643Z,1.30
2019-01-15T06:24:05.577Z,1.40
2019-01-15T06:25:05.780Z,1.40
2019-01-15T06:26:04.941Z,1.40
2019-01-15T06:27:05.007Z,1.40
2019-01-15T06:28:07.694Z,1.30
2019-01-15T06:29:05.728Z,1.30
2019-01-15T06:30:05.155Z,1.30
2019-01-15T06:31:07.812Z,1.30
2019-01-15T06:32:04.832Z,1.30
2019-01-15T06:33:07.491Z,1.30
2019-01-15T06:34:05.482Z,1.30
2019-01-15T06:35:05.754Z,1.30
2019-01-15T06:36:04.910Z,1.30
2019-01-15T06:37:09.998Z,1.30
2019-01-15T06:38:04.902Z,1.30
2019-01-15T06:39:07.625Z,1.30
2019-01-15T06:40:05.613Z,1.30
2019-01-15T06:41:07.269Z,1.30
2019-01-15T06:42:05.195Z,1.30
2019-01-15T06:43:05.309Z,1.30
2019-01-15T06:44:05.367Z,1.30
2019-01-15T06:45:05.550Z,1.30
2019-01-15T06:46:04.676Z,1.30
2019-01-15T06:47:04.777Z,1.30
2019-01-15T06:48:07.479Z,1.30
2019-01-15T06:49:05.522Z,1.30
2019-01-15T06:50:05.719Z,1.30
2019-01-15T06:51:07.294Z,1.30
2019-01-15T06:52:05.158Z,1.30
2019-01-15T06:53:10.368Z,1.30
2019-01-15T06:54:10.605Z,1.30
2019-01-15T06:55:08.105Z,1.30
2019-01-15T06:56:05.059Z,1.30
2019-01-15T06:57:05.212Z,1.30
2019-01-15T06:58:05.305Z,1.30
2019-01-15T06:59:07.981Z,1.30
2019-01-15T07:00:10.288Z,1.30
2019-01-15T07:01:05.262Z,1.30
2019-01-15T07:02:05.421Z,1.30
2019-01-15T07:03:05.448Z,1.30
2019-01-15T07:04:05.520Z,1.30
2019-01-15T07:05:05.688Z,1.30
2019-01-15T07:06:07.437Z,1.30
2019-01-15T07:07:05.397Z,1.30
2019-01-15T07:08:05.560Z,1.30
2019-01-15T07:09:10.715Z,1.30
2019-01-15T07:10:05.668Z,1.30
2019-01-15T07:11:04.734Z,1.30
2019-01-15T07:12:09.931Z,1.30
2019-01-15T07:13:04.909Z,1.30
2019-01-15T07:14:05.035Z,1.30
2019-01-15T07:15:05.106Z,1.30
2019-01-15T07:16:05.254Z,1.30
2019-01-15T07:17:05.350Z,1.30
2019-01-15T07:18:05.509Z,1.30
2019-01-15T07:19:05.685Z,1.30
2019-01-15T07:20:07.336Z,1.40
2019-01-15T07:21:05.357Z,1.30
2019-01-15T07:22:05.436Z,1.30
2019-01-15T07:23:05.541Z,1.30
2019-01-15T07:24:05.713Z,1.40
2019-01-15T07:25:04.750Z,1.30
2019-01-15T07:26:09.877Z,1.30
2019-01-15T07:27:04.976Z,1.30
2019-01-15T07:28:05.197Z,1.30
2019-01-15T07:29:05.409Z,1.30
2019-01-15T07:30:04.749Z,1.30
2019-01-15T07:31:04.980Z,1.30
2019-01-15T07:32:05.321Z,1.30
2019-01-15T07:33:05.563Z,1.30
2019-01-15T07:34:08.295Z,1.40
2019-01-15T07:35:05.242Z,1.30
2019-01-15T07:36:07.875Z,1.30
2019-01-15T07:37:04.793Z,1.40
2019-01-15T07:38:04.859Z,1.30
2019-01-15T07:39:04.931Z,1.40
2019-01-15T07:40:04.980Z,1.40
2019-01-15T07:41:07.552Z,1.40
2019-01-15T07:42:05.454Z,1.40
2019-01-15T07:43:05.495Z,1.40
2019-01-15T07:44:05.678Z,1.40
2019-01-15T07:45:07.307Z,1.40
2019-01-15T07:46:07.998Z,1.40
2019-01-15T07:47:05.046Z,1.40
2019-01-15T07:48:05.177Z,1.40
2019-01-15T07:49:05.259Z,1.40
2019-01-15T07:50:05.340Z,1.40
2019-01-15T07:51:05.406Z,1.40
2019-01-15T07:52:05.514Z,1.40
2019-01-15T07:53:05.755Z,1.40
2019-01-15T07:54:05.066Z,1.40
2019-01-15T07:55:05.183Z,1.40
2019-01-15T07:56:07.421Z,1.40
2019-01-15T07:57:05.473Z,1.40
2019-01-15T07:58:05.520Z,1.50
2019-01-15T07:59:05.621Z,1.50
2019-01-15T08:00:04.758Z,1.50
2019-01-15T08:01:04.908Z,1.50
2019-01-15T08:02:05.380Z,1.50
2019-01-15T08:03:07.973Z,1.50
2019-01-15T08:04:04.989Z,1.50
2019-01-15T08:05:05.049Z,1.50
2019-01-15T08:06:05.123Z,1.50
2019-01-15T08:07:05.155Z,1.50
2019-01-15T08:08:07.743Z,1.60
2019-01-15T08:09:04.742Z,1.60
2019-01-15T08:10:04.971Z,1.60
2019-01-15T08:11:05.107Z,1.60
2019-01-15T08:12:05.344Z,1.60
2019-01-15T08:13:05.485Z,1.60
2019-01-15T08:14:11.812Z,1.60
2019-01-15T08:15:05.271Z,1.60
2019-01-15T08:16:05.464Z,1.60
2019-01-15T08:17:05.534Z,1.60
2019-01-15T08:18:05.649Z,1.70
2019-01-15T08:19:04.694Z,1.70
2019-01-15T08:20:04.803Z,1.70
2019-01-15T08:21:04.864Z,1.70
2019-01-15T08:22:04.946Z,1.70
2019-01-15T08:23:04.970Z,1.70
2019-01-15T08:24:05.025Z,1.70
2019-01-15T08:25:05.131Z,1.70
2019-01-15T08:26:10.257Z,1.80
2019-01-15T08:27:05.198Z,1.80
2019-01-15T08:28:07.707Z,1.80
2019-01-15T08:29:04.638Z,1.80
2019-01-15T08:30:05.128Z,1.80
2019-01-15T08:31:05.117Z,1.80
2019-01-15T08:32:07.913Z,1.90
2019-01-15T08:33:05.013Z,1.90
2019-01-15T08:34:05.094Z,1.90
2019-01-15T08:35:05.081Z,1.90
2019-01-15T08:36:05.160Z,1.90
2019-01-15T08:37:05.288Z,1.90
2019-01-15T08:38:05.380Z,2.00
2019-01-15T08:39:05.525Z,1.90
2019-01-15T08:40:05.701Z,1.90
2019-01-15T08:41:07.303Z,2.00
2019-01-15T08:42:07.781Z,2.00
2019-01-15T08:43:04.775Z,2.00
2019-01-15T08:44:07.553Z,2.00
2019-01-15T08:45:08.052Z,2.00
2019-01-15T08:46:07.524Z,2.00
2019-01-15T08:47:08.083Z,2.00
2019-01-15T08:48:05.118Z,2.00
2019-01-15T08:49:05.143Z,2.00
2019-01-15T08:50:05.649Z,2.00
2019-01-15T08:51:04.701Z,2.10
2019-01-15T08:52:07.403Z,2.10
2019-01-15T08:53:05.307Z,2.00
2019-01-15T08:54:05.363Z,2.10
2019-01-15T08:55:07.960Z,2.10
2019-01-15T08:56:07.372Z,2.10
2019-01-15T08:57:07.903Z,2.10
2019-01-15T08:58:09.975Z,2.10
2019-01-15T08:59:04.939Z,2.10
2019-01-15T09:00:07.540Z,2.20
2019-01-15T09:01:05.454Z,2.20
2019-01-15T09:02:05.516Z,2.20
2019-01-15T09:03:05.585Z,2.20
2019-01-15T09:04:04.769Z,2.20
2019-01-15T09:05:07.429Z,2.20
2019-01-15T09:06:05.380Z,2.20
2019-01-15T09:07:05.378Z,2.20
2019-01-15T09:08:15.589Z,2.30
2019-01-15T09:09:08.270Z,2.30
2019-01-15T09:10:05.251Z,2.30
2019-01-15T09:11:05.381Z,2.30
2019-01-15T09:12:08.015Z,2.40
2019-01-15T09:13:04.935Z,2.30
2019-01-15T09:14:04.954Z,2.40
2019-01-15T09:15:07.665Z,2.40
2019-01-15T09:16:05.635Z,2.40
2019-01-15T09:17:10.898Z,2.40
2019-01-15T09:18:05.232Z,2.40
2019-01-15T09:19:07.937Z,2.50
2019-01-15T09:20:05.031Z,2.40
2019-01-15T09:21:05.273Z,2.50
2019-01-15T09:22:07.959Z,2.50
2019-01-15T09:23:04.964Z,2.40
2019-01-15T09:24:05.064Z,2.50
2019-01-15T09:25:07.578Z,2.50
2019-01-15T09:26:05.593Z,2.50
2019-01-15T09:27:05.053Z,2.50
2019-01-15T09:28:07.641Z,2.50
2019-01-15T09:29:04.744Z,2.50
2019-01-15T09:30:05.384Z,2.50
2019-01-15T09:31:05.498Z,2.60
2019-01-15T09:32:05.561Z,2.60
2019-01-15T09:33:10.728Z,2.60
2019-01-15T09:34:04.692Z,2.60
2019-01-15T09:35:07.316Z,2.60
2019-01-15T09:36:07.708Z,2.60
2019-01-15T09:37:05.737Z,2.60
2019-01-15T09:38:07.386Z,2.70
2019-01-15T09:39:08.041Z,2.60
2019-01-15T09:40:07.537Z,2.70
2019-01-15T09:41:05.509Z,2.70
2019-01-15T09:42:05.762Z,2.70
2019-01-15T09:43:04.932Z,2.70
2019-01-15T09:44:05.035Z,2.70
2019-01-15T09:45:05.173Z,2.70
2019-01-15T09:46:07.796Z,2.70
2019-01-15T09:47:04.700Z,2.70
2019-01-15T09:48:07.303Z,2.70
2019-01-15T09:49:05.197Z,2.70
2019-01-15T09:50:05.436Z,2.70
2019-01-15T09:51:05.681Z,2.80
2019-01-15T09:52:04.850Z,2.80
2019-01-15T09:53:05.528Z,2.80
2019-01-15T09:54:08.259Z,2.80
2019-01-15T09:55:05.363Z,2.80
2019-01-15T09:56:05.435Z,2.80
2019-01-15T09:57:10.678Z,2.80
2019-01-15T09:58:05.700Z,2.80
2019-01-15T09:59:07.418Z,2.90
2019-01-15T10:00:05.423Z,2.80
2019-01-15T10:01:05.447Z,2.90
2019-01-15T10:02:09.911Z,2.90
2019-01-15T10:03:07.396Z,2.90
2019-01-15T10:04:05.371Z,2.80
2019-01-15T10:05:05.425Z,2.90
2019-01-15T10:06:05.511Z,2.90
2019-01-15T10:07:05.584Z,2.90
2019-01-15T10:08:05.579Z,2.90
2019-01-15T10:09:05.795Z,3.00
2019-01-15T10:10:04.851Z,2.90
2019-01-15T10:11:04.860Z,3.00
2019-01-15T10:12:04.902Z,3.00
2019-01-15T10:13:10.026Z,3.00
2019-01-15T10:14:04.939Z,3.00
2019-01-15T10:15:10.031Z,3.00
2019-01-15T10:16:07.426Z,3.00
2019-01-15T10:17:05.345Z,3.00
2019-01-15T10:18:05.427Z,3.00
2019-01-15T10:19:05.435Z,3.00
2019-01-15T10:20:08.102Z,3.00
2019-01-15T10:21:12.752Z,3.00
2019-01-15T10:22:04.908Z,2.90
2019-01-15T10:23:07.771Z,3.00
2019-01-15T10:24:07.205Z,2.90
2019-01-15T10:25:07.787Z,2.90
2019-01-15T10:26:04.706Z,2.90
2019-01-15T10:27:04.777Z,2.90
2019-01-15T10:28:04.831Z,2.90
2019-01-15T10:29:04.851Z,3.00
2019-01-15T10:30:05.622Z,2.90
2019-01-15T10:31:09.734Z,2.90
2019-01-15T10:32:04.730Z,2.90
2019-01-15T10:33:07.309Z,2.90
2019-01-15T10:34:05.233Z,2.90
2019-01-15T10:35:05.269Z,3.00
2019-01-15T10:36:05.341Z,3.00
2019-01-15T10:37:07.994Z,3.00
2019-01-15T10:38:04.870Z,2.90
2019-01-15T10:39:04.958Z,3.00
2019-01-15T10:40:07.632Z,3.00
2019-01-15T10:41:08.109Z,3.00
2019-01-15T10:42:05.029Z,3.00
2019-01-15T10:43:05.026Z,3.00
2019-01-15T10:44:07.679Z,3.00
2019-01-15T10:45:04.635Z,3.00
2019-01-15T10:46:04.700Z,3.00
2019-01-15T10:47:07.287Z,3.00
2019-01-15T10:48:07.692Z,3.00
2019-01-15T10:49:05.526Z,3.00
2019-01-15T10:50:13.220Z,3.10
2019-01-15T10:51:07.760Z,3.10
2019-01-15T10:52:04.738Z,3.10
2019-01-15T10:53:07.394Z,3.10
2019-01-15T10:54:05.223Z,3.00
2019-01-15T10:55:05.234Z,3.10
2019-01-15T10:56:10.346Z,3.10
2019-01-15T10:57:05.292Z,3.10
2019-01-15T10:58:05.354Z,3.10
2019-01-15T10:59:05.421Z,3.10
2019-01-15T11:00:05.506Z,3.10
2019-01-15T11:01:05.683Z,3.10
2019-01-15T11:02:04.846Z,3.20
2019-01-15T11:03:05.064Z,3.10
2019-01-15T11:04:07.671Z,3.10
2019-01-15T11:05:10.681Z,3.10
2019-01-15T11:06:08.148Z,3.20
2019-01-15T11:07:07.624Z,3.20
2019-01-15T11:08:05.452Z,3.20
2019-01-15T11:09:05.424Z,3.20
2019-01-15T11:10:05.530Z,3.20
2019-01-15T11:11:08.110Z,3.20
2019-01-15T11:12:05.006Z,3.20
2019-01-15T11:13:05.087Z,3.20
2019-01-15T11:14:05.279Z,3.30
2019-01-15T11:15:10.407Z,3.30
2019-01-15T11:16:08.038Z,3.30
2019-01-15T11:17:04.959Z,3.30
2019-01-15T11:18:05.056Z,3.40
2019-01-15T11:19:07.709Z,3.30
2019-01-15T11:20:08.296Z,3.30
2019-01-15T11:21:05.131Z,3.40
2019-01-15T11:22:05.333Z,3.40
2019-01-15T11:23:05.436Z,3.40
2019-01-15T11:24:08.075Z,3.40
2019-01-15T11:25:05.004Z,3.40
2019-01-15T11:26:07.572Z,3.40
2019-01-15T11:27:05.631Z,3.40
2019-01-15T11:28:09.784Z,3.40
2019-01-15T11:29:04.756Z,3.40
2019-01-15T11:30:12.500Z,3.40
2019-01-15T11:31:08.008Z,3.50
2019-01-15T11:32:04.888Z,3.40
2019-01-15T11:33:04.851Z,3.40
2019-01-15T11:34:04.952Z,3.50
2019-01-15T11:35:10.077Z,3.40
2019-01-15T11:36:04.983Z,3.40
2019-01-15T11:37:10.087Z,3.50
2019-01-15T11:38:10.050Z,3.50
2019-01-15T11:39:04.956Z,3.50
2019-01-15T11:40:07.582Z,3.50
2019-01-15T11:41:05.468Z,3.50
2019-01-15T11:42:13.107Z,3.50
2019-01-15T11:43:05.074Z,3.50
2019-01-15T11:44:08.090Z,3.50
2019-01-15T11:45:04.978Z,3.50
2019-01-15T11:46:05.225Z,3.50
2019-01-15T11:47:07.846Z,3.50
2019-01-15T11:48:04.739Z,3.50
2019-01-15T11:49:04.793Z,3.50
2019-01-15T11:50:04.888Z,3.60
2019-01-15T11:51:07.843Z,3.60
2019-01-15T11:52:07.270Z,3.60
2019-01-15T11:53:05.171Z,3.60
2019-01-15T11:54:07.924Z,3.60
2019-01-15T11:55:04.904Z,3.60
2019-01-15T11:56:07.596Z,3.60
2019-01-15T11:57:05.773Z,3.60
2019-01-15T11:58:04.955Z,3.60
2019-01-15T11:59:05.066Z,3.60
2019-01-15T12:00:05.216Z,3.60
2019-01-15T12:01:05.408Z,3.60
2019-01-15T12:02:08.005Z,3.60
2019-01-15T12:03:07.549Z,3.60
2019-01-15T12:04:05.539Z,3.60
2019-01-15T12:05:08.147Z,3.70
2019-01-15T12:06:05.199Z,3.70
2019-01-15T12:07:07.928Z,3.70
2019-01-15T12:08:07.391Z,3.70
2019-01-15T12:09:05.261Z,3.70
2019-01-15T12:10:05.294Z,3.70
2019-01-15T12:11:07.991Z,3.70
2019-01-15T12:12:07.466Z,3.70
2019-01-15T12:13:05.345Z,3.70
2019-01-15T12:14:05.372Z,3.70
2019-01-15T12:15:10.718Z,3.70
2019-01-15T12:16:05.237Z,3.70
2019-01-15T12:17:07.905Z,3.70
2019-01-15T12:18:04.950Z,3.70
2019-01-15T12:19:05.052Z,3.70
2019-01-15T12:20:05.438Z,3.70
2019-01-15T12:21:08.126Z,3.70
2019-01-15T12:22:05.099Z,3.70
2019-01-15T12:23:05.157Z,3.70
2019-01-15T12:24:05.341Z,3.70
2019-01-15T12:25:05.559Z,3.70
2019-01-15T12:26:04.854Z,3.70
2019-01-15T12:27:07.475Z,3.70
2019-01-15T12:28:07.962Z,3.70
2019-01-15T12:29:04.918Z,3.70
2019-01-15T12:30:05.475Z,3.70
2019-01-15T12:31:05.559Z,3.70
2019-01-15T12:32:05.707Z,3.70
2019-01-15T12:33:07.283Z,3.70
2019-01-15T12:34:05.175Z,3.70
2019-01-15T12:35:07.827Z,3.70
2019-01-15T12:36:07.358Z,3.70
2019-01-15T12:37:05.297Z,3.70
2019-01-15T12:38:05.302Z,3.70
2019-01-15T12:39:05.371Z,3.70
2019-01-15T12:40:05.433Z,3.70
2019-01-15T12:41:08.048Z,3.70
2019-01-15T12:42:10.016Z,3.70
2019-01-15T12:43:07.427Z,3.70
2019-01-15T12:44:05.397Z,3.70
2019-01-15T12:45:05.462Z,3.70
2019-01-15T12:46:05.512Z,3.70
2019-01-15T12:47:05.648Z,3.70
2019-01-15T12:48:07.263Z,3.70
2019-01-15T12:49:05.181Z,3.70
2019-01-15T12:50:05.595Z,3.70
2019-01-15T12:51:07.242Z,3.70
2019-01-15T12:52:05.164Z,3.70
2019-01-15T12:53:05.295Z,3.70
2019-01-15T12:54:05.329Z,3.70
2019-01-15T12:55:07.964Z,3.70
2019-01-15T12:56:07.453Z,3.70
2019-01-15T12:57:05.365Z,3.70
2019-01-15T12:58:05.491Z,3.70
2019-01-15T12:59:10.657Z,3.70
2019-01-15T13:00:08.070Z,3.70
2019-01-15T13:01:07.523Z,3.70
2019-01-15T13:02:08.020Z,3.70
2019-01-15T13:03:07.553Z,3.70
2019-01-15T13:04:05.444Z,3.70
2019-01-15T13:05:05.607Z,3.70
2019-01-15T13:06:04.768Z,3.70
2019-01-15T13:07:04.983Z,3.70
2019-01-15T13:08:05.098Z,3.70
2019-01-15T13:09:05.159Z,3.70
2019-01-15T13:10:07.767Z,3.70
2019-01-15T13:11:04.829Z,3.70
2019-01-15T13:12:04.964Z,3.70
2019-01-15T13:13:05.079Z,3.70
2019-01-15T13:14:07.769Z,3.70
2019-01-15T13:15:04.877Z,3.70
2019-01-15T13:16:04.918Z,3.70
2019-01-15T13:17:05.022Z,3.80
2019-01-15T13:18:07.700Z,3.70